createdAt,value
2022-10-03T00:01:20.748Z,17.94
2022-10-03T00:05:02.479Z,17.90
2022-10-03T00:08:26.734Z,17.91
2022-10-03T00:11:37.972Z,17.87
2022-10-03T00:15:01.988Z,17.98
2022-10-03T00:18:34.635Z,18.05
2022-10-03T00:22:01.070Z,18.01
2022-10-03T00:25:44.709Z,17.95
2022-10-03T00:28:55.905Z,18.01
2022-10-03T00:32:00.956Z,18.07
2022-10-03T00:35:27.715Z,17.92
2022-10-03T00:39:03.851Z,17.91
2022-10-03T00:42:43.387Z,17.92
2022-10-03T00:45:58.280Z,17.99
2022-10-03T00:49:24.867Z,18.01
2022-10-03T00:52:41.599Z,17.95
2022-10-03T00:56:15.714Z,18.02
2022-10-03T00:59:26.727Z,17.99
2022-10-03T01:02:46.889Z,18.00
2022-10-03T01:06:21.401Z,17.95
2022-10-03T01:09:37.188Z,17.87
2022-10-03T01:12:49.090Z,17.89
2022-10-03T01:15:54.357Z,17.87
2022-10-03T01:19:14.827Z,17.83
2022-10-03T01:22:31.626Z,17.81
2022-10-03T01:26:01.446Z,17.80
2022-10-03T01:30:11.434Z,17.71
2022-10-03T01:33:24.195Z,17.60
2022-10-03T01:36:40.423Z,17.67
2022-10-03T01:39:48.992Z,17.68
2022-10-03T01:42:50.826Z,17.70
2022-10-03T01:46:28.253Z,17.69
2022-10-03T01:50:00.302Z,17.71
2022-10-03T01:53:13.615Z,17.77
2022-10-03T01:56:27.255Z,17.71
2022-10-03T01:59:29.296Z,17.79
2022-10-03T02:02:50.188Z,17.82
2022-10-03T02:06:06.936Z,17.81
2022-10-03T02:09:41.053Z,17.89
2022-10-03T02:13:05.991Z,17.86
2022-10-03T02:16:23.415Z,17.81
2022-10-03T02:19:37.016Z,17.76
2022-10-03T02:22:44.859Z,17.69
2022-10-03T02:26:09.626Z,17.65
2022-10-03T02:29:23.446Z,17.67
2022-10-03T02:32:56.050Z,17.68
2022-10-03T02:36:20.084Z,17.66
2022-10-03T02:39:23.175Z,17.80
2022-10-03T02:42:43.843Z,17.82
2022-10-03T02:46:13.540Z,17.81
2022-10-03T02:49:36.769Z,17.82
2022-10-03T02:53:15.699Z,17.87
2022-10-03T02:56:50.069Z,17.88
2022-10-03T03:00:04.675Z,17.85
2022-10-03T03:03:19.259Z,17.68
2022-10-03T03:06:41.923Z,17.75
2022-10-03T03:10:02.493Z,17.83
2022-10-03T03:13:39.495Z,17.85
2022-10-03T03:17:03.143Z,17.75
2022-10-03T03:20:08.401Z,17.77
2022-10-03T03:23:35.445Z,17.70
2022-10-03T03:26:51.947Z,17.94
2022-10-03T03:30:02.971Z,17.89
2022-10-03T03:33:34.390Z,17.80
2022-10-03T03:37:08.536Z,17.81
2022-10-03T03:40:51.398Z,17.83
2022-10-03T03:44:20.740Z,17.81
2022-10-03T03:47:31.729Z,17.92
2022-10-03T03:50:36.686Z,17.98
2022-10-03T03:53:49.027Z,18.11
2022-10-03T03:57:09.567Z,18.19
2022-10-03T04:00:16.166Z,18.33
2022-10-03T04:03:46.181Z,18.49
2022-10-03T04:06:50.987Z,18.59
2022-10-03T04:10:11.935Z,18.67
2022-10-03T04:13:26.691Z,18.73
2022-10-03T04:17:16.612Z,18.74
2022-10-03T04:20:40.270Z,18.78
2022-10-03T04:24:19.896Z,18.78
2022-10-03T04:27:33.174Z,18.76
2022-10-03T04:31:01.450Z,18.86
2022-10-03T04:34:12.694Z,18.94
2022-10-03T04:37:42.636Z,19.07
2022-10-03T04:40:58.600Z,19.09
2022-10-03T04:44:15.777Z,19.02
2022-10-03T04:47:28.252Z,19.09
2022-10-03T04:50:51.928Z,19.19
2022-10-03T04:54:04.321Z,19.12
2022-10-03T04:57:54.416Z,19.47
2022-10-03T05:01:16.281Z,19.72
2022-10-03T05:04:24.298Z,19.96
2022-10-03T05:07:43.109Z,20.04
2022-10-03T05:11:06.060Z,19.99
2022-10-03T05:14:13.127Z,20.03
2022-10-03T05:17:23.671Z,19.98
2022-10-03T05:20:37.873Z,20.07
2022-10-03T05:23:53.002Z,20.01
2022-10-03T05:27:11.317Z,19.96
2022-10-03T05:30:25.686Z,19.94
2022-10-03T05:33:53.009Z,19.89
2022-10-03T05:37:07.684Z,19.92
2022-10-03T05:40:17.387Z,19.96
2022-10-03T05:43:28.439Z,20.12
2022-10-03T05:46:42.671Z,20.32
2022-10-03T05:50:10.974Z,20.42
2022-10-03T05:53:22.394Z,20.27
2022-10-03T05:56:49.061Z,20.22
2022-10-03T06:00:18.742Z,20.14
2022-10-03T06:03:23.552Z,20.07
2022-10-03T06:07:22.174Z,20.00
2022-10-03T06:10:45.587Z,19.90
2022-10-03T06:14:17.162Z,19.91
2022-10-03T06:17:43.983Z,19.91
2022-10-03T06:21:05.109Z,19.93
2022-10-03T06:24:16.299Z,19.95
2022-10-03T06:27:42.441Z,19.99
2022-10-03T06:30:56.902Z,19.98
2022-10-03T06:34:41.965Z,19.95
2022-10-03T06:37:50.184Z,20.09
2022-10-03T06:41:07.245Z,20.12
2022-10-03T06:44:41.213Z,20.46
2022-10-03T06:48:21.997Z,20.89
2022-10-03T06:51:39.428Z,21.18
2022-10-03T06:55:04.530Z,21.41
2022-10-03T06:58:37.442Z,21.64
2022-10-03T07:02:19.902Z,21.66
2022-10-03T07:05:43.191Z,21.57
2022-10-03T07:09:21.922Z,21.49
2022-10-03T07:12:38.836Z,21.64
2022-10-03T07:16:05.012Z,21.84
2022-10-03T07:19:27.965Z,22.01
2022-10-03T07:22:41.879Z,22.13
2022-10-03T07:26:08.698Z,22.27
2022-10-03T07:29:31.860Z,22.33
2022-10-03T07:36:30.333Z,22.81
2022-10-03T07:39:52.447Z,23.12
2022-10-03T07:43:12.615Z,23.94
2022-10-03T07:46:36.566Z,24.67
2022-10-03T07:50:03.223Z,25.22
2022-10-03T07:53:14.491Z,25.51
2022-10-03T07:56:40.757Z,25.68
2022-10-03T07:59:59.787Z,25.94
2022-10-03T08:03:17.590Z,25.70
2022-10-03T08:06:43.613Z,24.36
2022-10-03T08:10:09.017Z,23.30
2022-10-03T08:13:49.517Z,22.82
2022-10-03T08:17:50.045Z,22.94
2022-10-03T08:21:03.657Z,23.04
2022-10-03T08:24:45.381Z,23.20
2022-10-03T08:28:09.107Z,23.31
2022-10-03T08:31:42.836Z,23.28
2022-10-03T08:34:50.911Z,23.17
2022-10-03T08:38:12.003Z,23.11
2022-10-03T08:41:32.402Z,22.89
2022-10-03T08:44:48.153Z,22.90
2022-10-03T08:48:09.230Z,22.88
2022-10-03T08:51:49.164Z,22.84
2022-10-03T08:55:00.023Z,22.75
2022-10-03T08:58:32.378Z,22.70
2022-10-03T09:01:50.614Z,22.69
2022-10-03T09:05:30.602Z,22.70
2022-10-03T09:08:54.669Z,22.37
2022-10-03T09:12:08.727Z,22.13
2022-10-03T09:15:44.514Z,21.43
2022-10-03T09:18:58.525Z,21.33
2022-10-03T09:22:03.287Z,21.18
2022-10-03T09:25:11.080Z,21.07
2022-10-03T09:28:44.345Z,20.96
2022-10-03T09:32:14.997Z,20.70
2022-10-03T09:35:22.873Z,20.84
2022-10-03T09:38:57.021Z,20.78
2022-10-03T09:42:36.626Z,20.74
2022-10-03T09:46:03.180Z,20.81
2022-10-03T09:49:54.467Z,20.79
2022-10-03T09:53:33.251Z,20.79
2022-10-03T09:56:47.860Z,20.72
2022-10-03T10:00:03.656Z,20.71
2022-10-03T10:03:29.088Z,20.70
2022-10-03T10:06:40.675Z,20.67
2022-10-03T10:10:03.760Z,20.62
2022-10-03T10:13:26.986Z,20.62
2022-10-03T10:16:47.103Z,20.59
2022-10-03T10:19:56.615Z,20.59
2022-10-03T10:23:05.407Z,20.53
2022-10-03T10:26:25.310Z,20.47
2022-10-03T10:29:36.960Z,20.45
2022-10-03T10:32:48.148Z,20.46
2022-10-03T10:36:16.861Z,20.47
2022-10-03T10:39:34.350Z,20.46
2022-10-03T10:43:01.506Z,20.38
2022-10-03T10:46:29.204Z,20.28
2022-10-03T10:49:43.184Z,20.27
2022-10-03T10:53:09.136Z,20.24
2022-10-03T10:56:22.958Z,20.46
2022-10-03T10:59:58.851Z,20.53
2022-10-03T11:03:57.576Z,20.55
2022-10-03T11:07:17.848Z,20.58
2022-10-03T11:10:34.260Z,20.70
2022-10-03T11:13:43.804Z,21.02
2022-10-03T11:17:23.425Z,21.34
2022-10-03T11:20:43.624Z,21.59
2022-10-03T11:24:14.068Z,21.72
2022-10-03T11:27:52.002Z,21.70
2022-10-03T11:31:21.906Z,21.64
2022-10-03T11:34:37.193Z,21.56
2022-10-03T11:37:39.880Z,21.57
2022-10-03T11:40:55.925Z,21.55
2022-10-03T11:44:59.683Z,21.54
2022-10-03T11:48:26.365Z,21.51
2022-10-03T11:51:41.147Z,21.51
2022-10-03T11:54:48.304Z,21.36
2022-10-03T11:58:19.156Z,21.39
2022-10-03T12:01:37.517Z,21.31
2022-10-03T12:05:07.228Z,21.37
2022-10-03T12:08:39.913Z,21.32
2022-10-03T12:12:00.652Z,21.25
2022-10-03T12:15:31.667Z,21.24
2022-10-03T12:18:45.573Z,21.24
2022-10-03T12:22:22.943Z,21.26
2022-10-03T12:25:28.005Z,21.25
2022-10-03T12:28:42.364Z,21.22
2022-10-03T12:32:16.162Z,21.17
2022-10-03T12:36:03.389Z,21.19
2022-10-03T12:39:37.769Z,21.18
2022-10-03T12:43:29.323Z,21.24
2022-10-03T12:46:51.964Z,21.15
2022-10-03T12:50:09.947Z,21.18
2022-10-03T12:53:17.827Z,21.25
2022-10-03T12:57:07.322Z,21.23
2022-10-03T13:00:28.004Z,21.09
2022-10-03T13:04:09.871Z,21.09
2022-10-03T13:07:33.927Z,20.98
2022-10-03T13:10:50.515Z,21.09
2022-10-03T13:14:37.513Z,21.09
2022-10-03T13:17:49.637Z,21.07
2022-10-03T13:21:45.040Z,21.02
2022-10-03T13:25:06.576Z,21.01
2022-10-03T13:28:23.932Z,20.91
2022-10-03T13:31:39.783Z,20.91
2022-10-03T13:35:20.613Z,21.00
2022-10-03T13:38:55.427Z,20.96
2022-10-03T13:42:13.683Z,20.67
2022-10-03T13:45:27.436Z,20.31
2022-10-03T13:48:31.941Z,19.73
2022-10-03T13:51:59.518Z,19.22
2022-10-03T13:55:26.117Z,19.08
2022-10-03T13:58:33.409Z,19.18
2022-10-03T14:01:47.673Z,19.37
2022-10-03T14:05:27.436Z,19.48
2022-10-03T14:09:07.075Z,19.52
2022-10-03T14:12:54.872Z,19.38
2022-10-03T14:16:15.229Z,19.57
2022-10-03T14:19:39.639Z,19.56
2022-10-03T14:23:00.154Z,19.56
2022-10-03T14:27:04.451Z,19.47
2022-10-03T14:30:25.710Z,19.47
2022-10-03T14:34:04.640Z,19.45
2022-10-03T14:37:20.149Z,19.38
2022-10-03T14:40:33.046Z,19.61
2022-10-03T14:44:12.656Z,20.03
2022-10-03T14:47:17.636Z,20.43
2022-10-03T14:50:53.979Z,20.65
2022-10-03T14:54:05.336Z,20.76
2022-10-03T14:57:27.271Z,20.88
2022-10-03T15:01:11.665Z,20.89
2022-10-03T15:04:37.509Z,20.86
2022-10-03T15:07:43.511Z,21.01
2022-10-03T15:10:47.621Z,21.03
2022-10-03T15:14:02.774Z,20.94
2022-10-03T15:17:19.739Z,20.81
2022-10-03T15:20:34.313Z,20.80
2022-10-03T15:23:49.591Z,20.58
2022-10-03T15:27:02.193Z,20.41
2022-10-03T15:30:07.152Z,20.52
2022-10-03T15:33:23.809Z,20.34
2022-10-03T15:36:34.158Z,20.27
2022-10-03T15:39:44.342Z,20.16
2022-10-03T15:42:51.910Z,20.15
2022-10-03T15:45:58.540Z,20.01
2022-10-03T15:49:07.866Z,19.97
2022-10-03T15:52:24.024Z,19.94
2022-10-03T15:55:43.115Z,19.90
2022-10-03T15:59:06.357Z,19.81
2022-10-03T16:02:31.231Z,19.65
2022-10-03T16:05:34.994Z,19.59
2022-10-03T16:08:52.241Z,19.58
2022-10-03T16:12:18.986Z,19.55
2022-10-03T16:15:43.862Z,19.36
2022-10-03T16:18:55.600Z,19.14
2022-10-03T16:22:10.738Z,19.29
2022-10-03T16:25:18.554Z,19.29
2022-10-03T16:28:34.033Z,19.26
2022-10-03T16:31:50.752Z,19.31
2022-10-03T16:35:03.835Z,19.27
2022-10-03T16:38:20.870Z,19.06
2022-10-03T16:41:35.250Z,19.16
2022-10-03T16:44:49.590Z,19.01
2022-10-03T16:48:14.632Z,19.19
2022-10-03T16:51:23.708Z,19.17
2022-10-03T16:54:28.336Z,19.18
2022-10-03T16:58:13.405Z,19.18
2022-10-03T17:01:36.243Z,19.18
2022-10-03T17:04:42.446Z,19.08
2022-10-03T17:08:29.818Z,19.03
2022-10-03T17:11:29.094Z,18.94
2022-10-03T17:14:39.908Z,18.88
2022-10-03T17:17:47.223Z,18.88
2022-10-03T17:20:57.286Z,18.67
2022-10-03T17:24:18.072Z,18.87
2022-10-03T17:27:32.907Z,18.82
2022-10-03T17:30:48.105Z,18.87
2022-10-03T17:33:57.281Z,18.88
2022-10-03T17:37:17.695Z,18.84
2022-10-03T17:40:44.696Z,18.81
2022-10-03T17:43:58.643Z,18.77
2022-10-03T17:47:43.489Z,18.77
2022-10-03T17:51:18.264Z,18.85
2022-10-03T17:54:27.027Z,18.77
2022-10-03T17:57:42.832Z,18.74
2022-10-03T18:00:45.037Z,18.69
2022-10-03T18:03:53.486Z,18.50
2022-10-03T18:07:02.193Z,18.57
2022-10-03T18:10:17.074Z,18.55
2022-10-03T18:13:48.702Z,18.54
2022-10-03T18:17:17.426Z,18.53
2022-10-03T18:20:58.469Z,18.54
2022-10-03T18:24:18.646Z,18.55
2022-10-03T18:28:04.511Z,18.53
2022-10-03T18:31:18.627Z,18.47
2022-10-03T18:34:36.305Z,18.41
2022-10-03T18:37:44.730Z,18.37
2022-10-03T18:40:53.635Z,18.18
2022-10-03T18:44:00.156Z,18.31
2022-10-03T18:47:20.914Z,18.47
2022-10-03T18:50:29.697Z,18.38
2022-10-03T18:53:44.864Z,18.43
2022-10-03T18:56:58.800Z,18.43
2022-10-03T19:00:09.865Z,18.42
2022-10-03T19:03:19.199Z,18.38
2022-10-03T19:06:28.769Z,18.31
2022-10-03T19:09:39.319Z,18.31
2022-10-03T19:12:49.923Z,18.31
2022-10-03T19:16:33.326Z,18.29
2022-10-03T19:19:55.247Z,18.19
2022-10-03T19:23:00.186Z,18.17
2022-10-03T19:26:08.927Z,18.02
2022-10-03T19:29:22.521Z,18.11
2022-10-03T19:32:35.035Z,18.14
2022-10-03T19:35:46.380Z,18.15
2022-10-03T19:38:49.745Z,18.17
2022-10-03T19:41:56.462Z,18.13
2022-10-03T19:45:00.694Z,18.11
2022-10-03T19:48:10.917Z,18.00
2022-10-03T19:51:25.664Z,18.04
2022-10-03T19:54:43.469Z,18.12
2022-10-03T19:57:58.484Z,18.09
2022-10-03T20:01:02.710Z,18.01
2022-10-03T20:04:05.046Z,18.04
2022-10-03T20:07:48.185Z,17.98
2022-10-03T20:11:08.665Z,18.00
2022-10-03T20:14:29.289Z,18.02
2022-10-03T20:17:32.767Z,18.10
2022-10-03T20:20:36.271Z,18.07
2022-10-03T20:23:42.369Z,18.16
2022-10-03T20:27:06.143Z,18.14
2022-10-03T20:30:40.266Z,18.07
2022-10-03T20:33:44.963Z,18.17
2022-10-03T20:36:58.116Z,18.10
2022-10-03T20:40:36.055Z,18.22
2022-10-03T20:43:53.470Z,18.06
2022-10-03T20:47:02.811Z,17.97
2022-10-03T20:50:37.417Z,17.97
2022-10-03T20:53:46.016Z,17.85
2022-10-03T20:56:56.707Z,18.05
2022-10-03T21:00:20.987Z,17.94
2022-10-03T21:03:37.801Z,17.93
2022-10-03T21:06:54.436Z,17.90
2022-10-03T21:10:32.305Z,17.99
2022-10-03T21:13:42.899Z,18.08
2022-10-03T21:16:49.194Z,18.01
2022-10-03T21:19:55.463Z,18.05
2022-10-03T21:23:03.532Z,18.06
2022-10-03T21:26:07.551Z,18.23
2022-10-03T21:29:27.176Z,18.12
2022-10-03T21:32:46.586Z,18.24
2022-10-03T21:35:51.639Z,18.10
2022-10-03T21:39:04.206Z,18.02
2022-10-03T21:42:06.264Z,18.09
2022-10-03T21:45:32.016Z,17.94
2022-10-03T21:48:41.706Z,18.01
2022-10-03T21:51:50.234Z,18.04
2022-10-03T21:55:15.277Z,18.04
2022-10-03T21:58:45.849Z,18.10
2022-10-03T22:02:07.071Z,18.10
2022-10-03T22:05:24.549Z,18.12
2022-10-03T22:08:34.032Z,18.23
2022-10-03T22:11:51.015Z,18.07
2022-10-03T22:14:56.500Z,18.14
2022-10-03T22:18:19.585Z,18.19
2022-10-03T22:21:35.867Z,18.14
2022-10-03T22:24:42.296Z,18.07
2022-10-03T22:28:06.090Z,18.12
2022-10-03T22:31:26.207Z,18.18
2022-10-03T22:34:47.067Z,18.13
2022-10-03T22:37:49.967Z,17.84
2022-10-03T22:40:55.602Z,17.76
2022-10-03T22:43:59.883Z,17.71
2022-10-03T22:47:13.507Z,17.78
2022-10-03T22:50:19.419Z,17.79
2022-10-03T22:53:27.139Z,17.79
2022-10-03T22:56:55.415Z,17.76
2022-10-03T23:00:04.977Z,17.69
2022-10-03T23:03:15.670Z,17.73
2022-10-03T23:06:38.038Z,17.68
2022-10-03T23:10:07.015Z,17.48
2022-10-03T23:13:14.704Z,17.63
2022-10-03T23:16:35.379Z,17.63
2022-10-03T23:19:52.600Z,17.51
2022-10-03T23:23:00.728Z,17.42
2022-10-03T23:26:11.891Z,17.40
2022-10-03T23:29:20.074Z,17.29
2022-10-03T23:32:53.740Z,17.34
2022-10-03T23:35:56.552Z,17.26
2022-10-03T23:39:02.178Z,17.23
2022-10-03T23:42:31.412Z,17.31
2022-10-03T23:45:35.767Z,17.29
2022-10-03T23:48:46.954Z,17.32
2022-10-03T23:51:49.855Z,17.21
2022-10-03T23:54:55.081Z,17.21
2022-10-03T23:57:58.570Z,17.09
